createdAt,value
2022-08-12T00:07:18.937Z,99188.03
2022-08-12T00:17:44.177Z,99183.05
2022-08-12T00:28:09.598Z,99186.03
2022-08-12T00:38:34.899Z,99191.21
2022-08-12T00:48:43.179Z,99193.59
2022-08-12T00:58:52.705Z,99194.81
2022-08-12T01:09:16.427Z,99192.91
2022-08-12T01:19:22.125Z,99198.52
2022-08-12T01:29:32.832Z,99192.19
2022-08-12T01:40:32.067Z,99189.43
2022-08-12T01:50:16.035Z,99183.98
2022-08-12T02:00:35.541Z,99184.91
2022-08-12T02:11:07.420Z,99174.42
2022-08-12T02:21:27.102Z,99168.38
2022-08-12T02:31:35.050Z,99162.34
2022-08-12T02:41:47.636Z,99165.92
2022-08-12T02:51:55.280Z,99159.38
2022-08-12T03:02:05.035Z,99154.65
2022-08-12T03:12:16.332Z,99161.42
2022-08-12T03:22:31.581Z,99164.80
2022-08-12T03:32:41.663Z,99163.17
2022-08-12T03:43:08.501Z,99146.05
2022-08-12T03:53:43.728Z,99149.86
2022-08-12T04:03:54.280Z,99149.19
2022-08-12T04:14:07.013Z,99158.71
2022-08-12T04:24:15.020Z,99163.52
2022-08-12T04:34:23.752Z,99162.86
2022-08-12T04:44:29.791Z,99159.09
2022-08-12T04:54:38.235Z,99165.88
2022-08-12T05:04:47.786Z,99159.84
2022-08-12T05:14:55.240Z,99165.02
2022-08-12T05:25:02.929Z,99172.34
2022-08-12T05:35:08.320Z,99167.99
2022-08-12T05:45:15.630Z,99155.26
2022-08-12T05:55:25.833Z,99160.21
2022-08-12T06:15:42.777Z,99166.06
2022-08-12T06:25:49.876Z,99173.09
2022-08-12T06:35:59.005Z,99160.70
2022-08-12T06:46:05.616Z,99157.44
2022-08-12T06:56:12.778Z,99148.48
2022-08-12T07:16:32.676Z,99142.44
2022-08-12T07:26:45.262Z,99140.44
2022-08-12T07:36:52.364Z,99139.98
2022-08-12T07:46:59.461Z,99138.95
2022-08-12T07:57:04.925Z,99145.61
2022-08-12T08:07:14.302Z,99142.35
2022-08-12T08:17:21.555Z,99141.33
2022-08-12T08:27:28.782Z,99146.01
2022-08-12T08:37:37.169Z,99143.66
2022-08-12T08:47:43.967Z,99143.10
2022-08-12T08:57:54.693Z,99144.88
2022-08-12T09:08:14.156Z,99150.89
2022-08-12T09:18:33.396Z,99149.90
2022-08-12T09:28:41.281Z,99157.38
2022-08-12T09:38:58.439Z,99158.21
2022-08-12T09:49:13.447Z,99154.67
2022-08-12T10:00:13.281Z,99156.24
2022-08-12T10:09:57.209Z,99146.17
2022-08-12T10:20:03.999Z,99142.67
2022-08-12T10:30:41.932Z,99127.51
2022-08-12T10:40:57.505Z,99116.86
2022-08-12T10:51:56.526Z,99103.52
2022-08-12T11:04:16.657Z,99097.17
2022-08-12T11:12:35.905Z,99085.73
2022-08-12T11:22:26.615Z,99071.70
2022-08-12T11:32:38.840Z,99083.06
2022-08-12T11:42:47.114Z,99074.13
2022-08-12T11:52:57.167Z,99076.20
2022-08-12T12:03:05.307Z,99073.29
2022-08-12T12:14:05.316Z,99069.02
2022-08-12T12:23:40.347Z,99059.13
2022-08-12T12:33:57.366Z,99049.66
2022-08-12T12:44:04.719Z,99039.39
2022-08-12T12:54:13.086Z,99035.09
2022-08-12T13:04:24.800Z,99030.62
2022-08-12T13:14:31.502Z,99021.27
2022-08-12T13:24:42.924Z,99015.06
2022-08-12T13:34:51.943Z,99003.71
2022-08-12T13:45:02.851Z,99000.30
2022-08-12T13:55:09.738Z,98996.86
2022-08-12T14:05:38.174Z,98989.95
2022-08-12T14:15:48.524Z,98993.29
2022-08-12T14:25:59.873Z,98982.34
2022-08-12T14:36:10.199Z,98979.76
2022-08-12T14:46:22.167Z,98974.73
2022-08-12T14:56:58.558Z,98969.09
2022-08-12T15:06:58.387Z,98966.42
2022-08-12T15:17:08.509Z,98964.41
2022-08-12T15:27:22.543Z,98955.59
2022-08-12T15:38:08.396Z,98951.52
2022-08-12T15:48:16.710Z,98940.91
2022-08-12T15:58:27.398Z,98935.58
2022-08-12T16:08:41.634Z,98943.58
2022-08-12T16:28:56.343Z,98942.24
2022-08-12T16:39:04.304Z,98944.70
2022-08-12T16:49:13.836Z,98945.20
2022-08-12T16:59:22.521Z,98942.52
2022-08-12T17:09:39.911Z,98934.01
2022-08-12T17:20:30.585Z,98933.64
2022-08-12T17:30:14.701Z,98927.70
2022-08-12T17:40:36.238Z,98916.34
2022-08-12T17:50:46.467Z,98910.60
2022-08-12T18:00:58.115Z,98914.85
2022-08-12T18:12:04.614Z,98913.55
2022-08-12T18:22:02.081Z,98921.98
2022-08-12T18:32:35.168Z,98920.56
2022-08-12T18:42:36.559Z,98919.72
2022-08-12T18:52:45.301Z,98923.89
2022-08-12T19:02:56.141Z,98920.52
2022-08-12T19:13:23.860Z,98920.58
2022-08-12T19:23:35.074Z,98921.40
2022-08-12T19:33:56.129Z,98922.09
2022-08-12T19:44:18.632Z,98921.14
2022-08-12T19:54:30.272Z,98915.86
2022-08-12T20:04:38.918Z,98919.11
2022-08-12T20:14:48.303Z,98922.05
2022-08-12T20:24:56.798Z,98928.94
2022-08-12T20:35:10.047Z,98916.91
2022-08-12T20:45:19.042Z,98910.02
2022-08-12T20:55:42.042Z,98921.23
2022-08-12T21:06:12.740Z,98935.81
2022-08-12T21:16:31.703Z,98934.16
2022-08-12T21:26:43.764Z,98932.61
2022-08-12T21:37:13.293Z,98931.31
2022-08-12T21:47:32.344Z,98915.09
2022-08-12T21:57:50.800Z,98918.22
2022-08-12T22:08:00.241Z,98919.55
2022-08-12T22:28:39.071Z,98924.58
2022-08-12T22:38:46.145Z,98923.51
2022-08-12T22:48:54.266Z,98921.75
2022-08-12T22:59:02.645Z,98915.64
2022-08-12T23:09:09.945Z,98906.27
2022-08-12T23:19:23.227Z,98897.36
2022-08-12T23:29:42.820Z,98884.95
2022-08-12T23:40:06.478Z,98867.73
2022-08-12T23:50:17.001Z,98856.02
